Thornville, Ohio
Current Conditions -  °F | °C
As of 6:54 PM on Friday 19 Dec 2014 (Local Time) from KVTA Reporting Station
Overcast Overcast  
Wind Chill: -3°   Ceiling: 1700
Heat Index: -1°   Visibility: 10mi
Dew Point: -5°   Wind: 5mph
Humidity: 72%   Direction: 270°W
Pressure: 30.3"   Gusts: NA
Location:  39.9°N, 82.42°W
Report Text: KVTA 192354Z AUTO 27004KT 10SM OVC017 M01/M05 A3030 RMK AO2 SLP271 T10061050 11006 21006 53018
Loading
Personal Weather Stations






























Interactive Weather Map New forecast layout! Learn more

10-Day Weather Forecast

Advertisements
Track Severe Weather on mobile